sensor_id;sensor_type;location;lat;lon;timestamp;P1;durP1;ratioP1;P2;durP2;ratioP2
23142;SDS011;11740;51.168;4.112;2022-07-31T00:00:16;8.73;;;3.17;;
23142;SDS011;11740;51.168;4.112;2022-07-31T00:02:44;5.72;;;3.13;;
23142;SDS011;11740;51.168;4.112;2022-07-31T00:05:12;6.13;;;3.28;;
23142;SDS011;11740;51.168;4.112;2022-07-31T00:07:39;5.13;;;2.88;;
23142;SDS011;11740;51.168;4.112;2022-07-31T00:10:06;3.45;;;2.70;;
23142;SDS011;11740;51.168;4.112;2022-07-31T00:12:34;4.93;;;2.80;;
23142;SDS011;11740;51.168;4.112;2022-07-31T00:15:05;4.88;;;2.53;;
23142;SDS011;11740;51.168;4.112;2022-07-31T00:17:38;4.47;;;2.55;;
23142;SDS011;11740;51.168;4.112;2022-07-31T00:20:07;3.08;;;2.38;;
23142;SDS011;11740;51.168;4.112;2022-07-31T00:22:40;3.72;;;2.25;;
23142;SDS011;11740;51.168;4.112;2022-07-31T00:25:08;4.05;;;2.33;;
23142;SDS011;11740;51.168;4.112;2022-07-31T00:27:37;6.20;;;2.42;;
23142;SDS011;11740;51.168;4.112;2022-07-31T00:30:05;4.85;;;2.15;;
23142;SDS011;11740;51.168;4.112;2022-07-31T00:32:33;5.70;;;2.42;;
23142;SDS011;11740;51.168;4.112;2022-07-31T00:35:00;5.18;;;2.40;;
23142;SDS011;11740;51.168;4.112;2022-07-31T00:37:27;7.53;;;2.47;;
23142;SDS011;11740;51.168;4.112;2022-07-31T00:39:55;3.83;;;2.00;;
23142;SDS011;11740;51.168;4.112;2022-07-31T00:42:23;3.50;;;2.30;;
23142;SDS011;11740;51.168;4.112;2022-07-31T00:44:50;4.60;;;2.08;;
23142;SDS011;11740;51.168;4.112;2022-07-31T00:47:18;2.10;;;1.90;;
23142;SDS011;11740;51.168;4.112;2022-07-31T00:49:50;4.50;;;2.17;;
23142;SDS011;11740;51.168;4.112;2022-07-31T00:52:18;4.72;;;1.90;;
23142;SDS011;11740;51.168;4.112;2022-07-31T00:54:45;4.35;;;2.03;;
23142;SDS011;11740;51.168;4.112;2022-07-31T00:57:13;2.95;;;1.95;;
23142;SDS011;11740;51.168;4.112;2022-07-31T00:59:40;2.53;;;2.08;;
23142;SDS011;11740;51.168;4.112;2022-07-31T01:02:07;4.97;;;2.40;;
23142;SDS011;11740;51.168;4.112;2022-07-31T01:04:34;2.53;;;2.10;;
23142;SDS011;11740;51.168;4.112;2022-07-31T01:07:06;3.72;;;2.20;;
23142;SDS011;11740;51.168;4.112;2022-07-31T01:09:33;3.75;;;2.25;;
23142;SDS011;11740;51.168;4.112;2022-07-31T01:14:30;2.72;;;2.20;;
23142;SDS011;11740;51.168;4.112;2022-07-31T01:17:02;3.08;;;2.22;;
23142;SDS011;11740;51.168;4.112;2022-07-31T01:19:45;3.65;;;1.80;;
23142;SDS011;11740;51.168;4.112;2022-07-31T01:28:01;4.75;;;2.10;;
23142;SDS011;11740;51.168;4.112;2022-07-31T01:30:59;2.60;;;1.80;;
23142;SDS011;11740;51.168;4.112;2022-07-31T01:33:52;2.35;;;1.83;;
23142;SDS011;11740;51.168;4.112;2022-07-31T01:37:02;4.80;;;1.87;;
23142;SDS011;11740;51.168;4.112;2022-07-31T01:40:06;3.58;;;1.98;;
23142;SDS011;11740;51.168;4.112;2022-07-31T01:42:38;3.90;;;1.90;;
23142;SDS011;11740;51.168;4.112;2022-07-31T01:45:09;3.53;;;1.70;;
23142;SDS011;11740;51.168;4.112;2022-07-31T01:47:40;2.75;;;1.83;;
23142;SDS011;11740;51.168;4.112;2022-07-31T01:50:08;2.42;;;1.70;;
23142;SDS011;11740;51.168;4.112;2022-07-31T01:52:57;1.95;;;1.52;;
23142;SDS011;11740;51.168;4.112;2022-07-31T01:55:26;2.78;;;1.73;;
23142;SDS011;11740;51.168;4.112;2022-07-31T01:57:54;3.08;;;1.77;;
23142;SDS011;11740;51.168;4.112;2022-07-31T02:00:22;2.53;;;1.63;;
23142;SDS011;11740;51.168;4.112;2022-07-31T02:02:59;3.42;;;1.98;;
23142;SDS011;11740;51.168;4.112;2022-07-31T02:05:34;2.63;;;2.10;;
23142;SDS011;11740;51.168;4.112;2022-07-31T02:08:03;4.38;;;2.08;;
23142;SDS011;11740;51.168;4.112;2022-07-31T02:10:31;3.42;;;2.15;;
23142;SDS011;11740;51.168;4.112;2022-07-31T02:12:59;2.35;;;1.77;;
23142;SDS011;11740;51.168;4.112;2022-07-31T02:15:28;2.90;;;1.80;;
23142;SDS011;11740;51.168;4.112;2022-07-31T02:17:58;2.85;;;1.67;;
23142;SDS011;11740;51.168;4.112;2022-07-31T02:20:26;6.20;;;2.10;;
23142;SDS011;11740;51.168;4.112;2022-07-31T02:22:53;4.20;;;1.88;;
23142;SDS011;11740;51.168;4.112;2022-07-31T02:25:21;2.13;;;1.92;;
23142;SDS011;11740;51.168;4.112;2022-07-31T02:27:49;2.25;;;1.60;;
23142;SDS011;11740;51.168;4.112;2022-07-31T02:30:24;3.35;;;1.58;;
23142;SDS011;11740;51.168;4.112;2022-07-31T02:33:05;3.40;;;1.92;;
23142;SDS011;11740;51.168;4.112;2022-07-31T02:35:37;3.20;;;1.70;;
23142;SDS011;11740;51.168;4.112;2022-07-31T02:38:10;2.35;;;1.58;;
23142;SDS011;11740;51.168;4.112;2022-07-31T02:40:58;2.15;;;1.77;;
23142;SDS011;11740;51.168;4.112;2022-07-31T02:43:31;4.60;;;2.15;;
23142;SDS011;11740;51.168;4.112;2022-07-31T02:46:00;2.70;;;1.60;;
23142;SDS011;11740;51.168;4.112;2022-07-31T02:48:28;2.28;;;2.03;;
23142;SDS011;11740;51.168;4.112;2022-07-31T02:50:56;3.05;;;1.73;;
23142;SDS011;11740;51.168;4.112;2022-07-31T02:53:24;3.33;;;2.08;;
23142;SDS011;11740;51.168;4.112;2022-07-31T02:55:52;5.22;;;2.30;;
23142;SDS011;11740;51.168;4.112;2022-07-31T02:58:20;4.05;;;2.25;;
23142;SDS011;11740;51.168;4.112;2022-07-31T03:00:47;3.80;;;2.30;;
23142;SDS011;11740;51.168;4.112;2022-07-31T03:03:33;2.35;;;2.15;;
23142;SDS011;11740;51.168;4.112;2022-07-31T03:06:00;3.30;;;2.10;;
23142;SDS011;11740;51.168;4.112;2022-07-31T03:08:27;2.47;;;1.90;;
23142;SDS011;11740;51.168;4.112;2022-07-31T03:10:56;4.28;;;2.13;;
23142;SDS011;11740;51.168;4.112;2022-07-31T03:13:23;2.08;;;1.90;;
23142;SDS011;11740;51.168;4.112;2022-07-31T03:15:54;3.10;;;1.92;;
23142;SDS011;11740;51.168;4.112;2022-07-31T03:18:22;2.70;;;2.00;;
23142;SDS011;11740;51.168;4.112;2022-07-31T03:20:51;3.35;;;2.00;;
23142;SDS011;11740;51.168;4.112;2022-07-31T03:23:21;3.58;;;2.35;;
23142;SDS011;11740;51.168;4.112;2022-07-31T03:25:51;4.03;;;2.05;;
23142;SDS011;11740;51.168;4.112;2022-07-31T03:28:19;2.90;;;2.03;;
23142;SDS011;11740;51.168;4.112;2022-07-31T03:30:49;3.30;;;2.35;;
23142;SDS011;11740;51.168;4.112;2022-07-31T03:35:48;4.18;;;2.33;;
23142;SDS011;11740;51.168;4.112;2022-07-31T03:38:15;2.53;;;2.33;;
23142;SDS011;11740;51.168;4.112;2022-07-31T03:41:03;4.22;;;2.50;;
23142;SDS011;11740;51.168;4.112;2022-07-31T03:43:30;3.63;;;2.30;;
23142;SDS011;11740;51.168;4.112;2022-07-31T03:46:14;4.68;;;2.22;;
23142;SDS011;11740;51.168;4.112;2022-07-31T03:48:44;3.00;;;2.42;;
23142;SDS011;11740;51.168;4.112;2022-07-31T03:51:12;3.35;;;2.30;;
23142;SDS011;11740;51.168;4.112;2022-07-31T03:53:41;3.55;;;2.22;;
23142;SDS011;11740;51.168;4.112;2022-07-31T03:56:09;3.80;;;2.20;;
23142;SDS011;11740;51.168;4.112;2022-07-31T03:58:37;3.78;;;2.53;;
23142;SDS011;11740;51.168;4.112;2022-07-31T04:01:05;5.97;;;2.42;;
23142;SDS011;11740;51.168;4.112;2022-07-31T04:03:37;2.88;;;2.38;;
23142;SDS011;11740;51.168;4.112;2022-07-31T04:06:04;4.55;;;2.53;;
23142;SDS011;11740;51.168;4.112;2022-07-31T04:08:32;4.40;;;2.53;;
23142;SDS011;11740;51.168;4.112;2022-07-31T04:10:59;3.25;;;2.38;;
23142;SDS011;11740;51.168;4.112;2022-07-31T04:13:26;3.17;;;2.63;;
23142;SDS011;11740;51.168;4.112;2022-07-31T04:15:53;3.30;;;2.38;;
23142;SDS011;11740;51.168;4.112;2022-07-31T04:18:20;5.38;;;2.50;;
23142;SDS011;11740;51.168;4.112;2022-07-31T04:20:47;4.07;;;2.60;;
23142;SDS011;11740;51.168;4.112;2022-07-31T04:23:14;6.82;;;3.05;;
23142;SDS011;11740;51.168;4.112;2022-07-31T04:25:42;3.33;;;2.50;;
23142;SDS011;11740;51.168;4.112;2022-07-31T04:28:09;4.47;;;2.40;;
23142;SDS011;11740;51.168;4.112;2022-07-31T04:30:36;3.22;;;2.20;;
23142;SDS011;11740;51.168;4.112;2022-07-31T04:33:04;5.82;;;2.45;;
23142;SDS011;11740;51.168;4.112;2022-07-31T04:35:31;4.85;;;2.40;;
23142;SDS011;11740;51.168;4.112;2022-07-31T04:37:58;4.10;;;2.80;;
23142;SDS011;11740;51.168;4.112;2022-07-31T04:40:25;5.72;;;2.35;;
23142;SDS011;11740;51.168;4.112;2022-07-31T04:42:54;3.92;;;2.50;;
23142;SDS011;11740;51.168;4.112;2022-07-31T04:45:21;5.65;;;2.80;;
23142;SDS011;11740;51.168;4.112;2022-07-31T04:47:48;4.22;;;2.47;;
23142;SDS011;11740;51.168;4.112;2022-07-31T04:50:15;3.53;;;2.50;;
23142;SDS011;11740;51.168;4.112;2022-07-31T04:52:42;4.80;;;2.38;;
23142;SDS011;11740;51.168;4.112;2022-07-31T04:55:09;5.28;;;2.58;;
23142;SDS011;11740;51.168;4.112;2022-07-31T04:57:36;5.47;;;2.80;;
23142;SDS011;11740;51.168;4.112;2022-07-31T05:00:04;4.50;;;2.63;;
23142;SDS011;11740;51.168;4.112;2022-07-31T05:02:35;5.75;;;2.80;;
23142;SDS011;11740;51.168;4.112;2022-07-31T05:05:02;4.38;;;2.72;;
23142;SDS011;11740;51.168;4.112;2022-07-31T05:07:30;3.80;;;2.40;;
23142;SDS011;11740;51.168;4.112;2022-07-31T05:09:57;4.97;;;2.50;;
23142;SDS011;11740;51.168;4.112;2022-07-31T05:12:24;4.95;;;2.70;;
23142;SDS011;11740;51.168;4.112;2022-07-31T05:14:52;3.70;;;2.60;;
23142;SDS011;11740;51.168;4.112;2022-07-31T05:17:19;3.67;;;2.50;;
23142;SDS011;11740;51.168;4.112;2022-07-31T05:19:45;5.35;;;2.70;;
23142;SDS011;11740;51.168;4.112;2022-07-31T05:22:13;3.75;;;2.60;;
23142;SDS011;11740;51.168;4.112;2022-07-31T05:24:40;3.03;;;2.70;;
23142;SDS011;11740;51.168;4.112;2022-07-31T05:27:08;3.33;;;2.85;;
23142;SDS011;11740;51.168;4.112;2022-07-31T05:29:35;3.08;;;2.50;;
23142;SDS011;11740;51.168;4.112;2022-07-31T05:32:04;5.47;;;2.90;;
23142;SDS011;11740;51.168;4.112;2022-07-31T05:34:31;5.28;;;3.00;;
23142;SDS011;11740;51.168;4.112;2022-07-31T05:36:58;5.95;;;3.15;;
23142;SDS011;11740;51.168;4.112;2022-07-31T05:39:27;3.13;;;2.45;;
23142;SDS011;11740;51.168;4.112;2022-07-31T05:41:55;3.67;;;2.45;;
23142;SDS011;11740;51.168;4.112;2022-07-31T05:44:22;4.00;;;2.75;;
23142;SDS011;11740;51.168;4.112;2022-07-31T05:46:50;4.90;;;2.88;;
23142;SDS011;11740;51.168;4.112;2022-07-31T05:49:17;6.18;;;3.40;;
23142;SDS011;11740;51.168;4.112;2022-07-31T05:51:45;5.07;;;3.10;;
23142;SDS011;11740;51.168;4.112;2022-07-31T05:54:12;5.07;;;3.35;;
23142;SDS011;11740;51.168;4.112;2022-07-31T05:56:39;6.07;;;3.15;;
23142;SDS011;11740;51.168;4.112;2022-07-31T05:59:06;7.00;;;3.30;;
23142;SDS011;11740;51.168;4.112;2022-07-31T06:01:35;7.65;;;3.47;;
23142;SDS011;11740;51.168;4.112;2022-07-31T06:04:02;5.35;;;3.35;;
23142;SDS011;11740;51.168;4.112;2022-07-31T06:06:30;4.80;;;3.25;;
23142;SDS011;11740;51.168;4.112;2022-07-31T06:08:57;5.30;;;3.33;;
23142;SDS011;11740;51.168;4.112;2022-07-31T06:11:30;6.22;;;3.47;;
23142;SDS011;11740;51.168;4.112;2022-07-31T06:13:58;8.55;;;3.72;;
23142;SDS011;11740;51.168;4.112;2022-07-31T06:16:25;4.65;;;3.92;;
23142;SDS011;11740;51.168;4.112;2022-07-31T06:18:52;5.40;;;3.42;;
23142;SDS011;11740;51.168;4.112;2022-07-31T06:21:20;6.45;;;4.20;;
23142;SDS011;11740;51.168;4.112;2022-07-31T06:23:46;6.18;;;4.05;;
23142;SDS011;11740;51.168;4.112;2022-07-31T06:26:13;9.00;;;4.05;;
23142;SDS011;11740;51.168;4.112;2022-07-31T06:28:41;7.82;;;4.40;;
23142;SDS011;11740;51.168;4.112;2022-07-31T06:31:17;7.40;;;4.20;;
23142;SDS011;11740;51.168;4.112;2022-07-31T06:33:46;8.10;;;4.32;;
23142;SDS011;11740;51.168;4.112;2022-07-31T06:36:16;6.32;;;4.43;;
23142;SDS011;11740;51.168;4.112;2022-07-31T06:38:43;5.35;;;4.25;;
23142;SDS011;11740;51.168;4.112;2022-07-31T06:41:13;6.80;;;4.45;;
23142;SDS011;11740;51.168;4.112;2022-07-31T06:44:00;7.68;;;4.53;;
23142;SDS011;11740;51.168;4.112;2022-07-31T06:46:28;11.90;;;5.70;;
23142;SDS011;11740;51.168;4.112;2022-07-31T06:48:55;8.82;;;4.70;;
23142;SDS011;11740;51.168;4.112;2022-07-31T06:51:22;6.97;;;4.88;;
23142;SDS011;11740;51.168;4.112;2022-07-31T06:54:01;9.38;;;4.82;;
23142;SDS011;11740;51.168;4.112;2022-07-31T06:56:31;7.30;;;4.72;;
23142;SDS011;11740;51.168;4.112;2022-07-31T06:59:00;7.63;;;4.95;;
23142;SDS011;11740;51.168;4.112;2022-07-31T07:01:27;9.27;;;4.85;;
23142;SDS011;11740;51.168;4.112;2022-07-31T07:03:55;10.52;;;4.63;;
23142;SDS011;11740;51.168;4.112;2022-07-31T07:06:22;9.02;;;4.90;;
23142;SDS011;11740;51.168;4.112;2022-07-31T07:08:49;6.43;;;4.75;;
23142;SDS011;11740;51.168;4.112;2022-07-31T07:11:17;7.72;;;4.90;;
23142;SDS011;11740;51.168;4.112;2022-07-31T07:13:46;10.90;;;5.00;;
23142;SDS011;11740;51.168;4.112;2022-07-31T07:16:13;9.50;;;5.28;;
23142;SDS011;11740;51.168;4.112;2022-07-31T07:18:40;10.85;;;5.22;;
23142;SDS011;11740;51.168;4.112;2022-07-31T07:21:11;7.47;;;4.18;;
23142;SDS011;11740;51.168;4.112;2022-07-31T07:23:39;8.30;;;4.93;;
23142;SDS011;11740;51.168;4.112;2022-07-31T07:26:06;8.77;;;5.35;;
23142;SDS011;11740;51.168;4.112;2022-07-31T07:28:33;8.50;;;4.72;;
23142;SDS011;11740;51.168;4.112;2022-07-31T07:31:02;6.97;;;4.95;;
23142;SDS011;11740;51.168;4.112;2022-07-31T07:33:30;6.60;;;4.72;;
23142;SDS011;11740;51.168;4.112;2022-07-31T07:36:08;9.02;;;5.00;;
23142;SDS011;11740;51.168;4.112;2022-07-31T07:38:50;7.90;;;4.75;;
23142;SDS011;11740;51.168;4.112;2022-07-31T07:41:21;6.78;;;5.00;;
23142;SDS011;11740;51.168;4.112;2022-07-31T07:43:50;11.18;;;5.40;;
23142;SDS011;11740;51.168;4.112;2022-07-31T07:46:19;7.45;;;4.78;;
23142;SDS011;11740;51.168;4.112;2022-07-31T07:48:49;6.63;;;4.70;;
23142;SDS011;11740;51.168;4.112;2022-07-31T07:51:17;8.27;;;4.90;;
23142;SDS011;11740;51.168;4.112;2022-07-31T07:53:44;8.75;;;5.22;;
23142;SDS011;11740;51.168;4.112;2022-07-31T07:56:11;11.80;;;4.63;;
23142;SDS011;11740;51.168;4.112;2022-07-31T07:58:38;8.95;;;5.05;;
23142;SDS011;11740;51.168;4.112;2022-07-31T08:01:06;6.30;;;4.55;;
23142;SDS011;11740;51.168;4.112;2022-07-31T08:03:33;8.35;;;4.70;;
23142;SDS011;11740;51.168;4.112;2022-07-31T08:06:17;11.02;;;4.88;;
23142;SDS011;11740;51.168;4.112;2022-07-31T08:08:47;6.20;;;4.65;;
23142;SDS011;11740;51.168;4.112;2022-07-31T08:11:15;8.73;;;4.47;;
23142;SDS011;11740;51.168;4.112;2022-07-31T08:13:44;7.07;;;4.00;;
23142;SDS011;11740;51.168;4.112;2022-07-31T08:16:17;8.55;;;4.72;;
23142;SDS011;11740;51.168;4.112;2022-07-31T08:18:45;8.40;;;4.47;;
23142;SDS011;11740;51.168;4.112;2022-07-31T08:21:17;10.50;;;4.25;;
23142;SDS011;11740;51.168;4.112;2022-07-31T08:23:44;9.02;;;4.70;;
23142;SDS011;11740;51.168;4.112;2022-07-31T08:26:12;6.60;;;4.38;;
23142;SDS011;11740;51.168;4.112;2022-07-31T08:28:39;6.00;;;4.20;;
23142;SDS011;11740;51.168;4.112;2022-07-31T08:31:16;6.88;;;4.32;;
23142;SDS011;11740;51.168;4.112;2022-07-31T08:33:45;6.78;;;4.30;;
23142;SDS011;11740;51.168;4.112;2022-07-31T08:36:12;6.35;;;4.18;;
23142;SDS011;11740;51.168;4.112;2022-07-31T08:38:40;6.15;;;4.25;;
23142;SDS011;11740;51.168;4.112;2022-07-31T08:41:07;6.30;;;4.32;;
23142;SDS011;11740;51.168;4.112;2022-07-31T08:43:34;6.38;;;3.75;;
23142;SDS011;11740;51.168;4.112;2022-07-31T08:46:22;7.53;;;4.10;;
23142;SDS011;11740;51.168;4.112;2022-07-31T08:48:49;8.43;;;3.60;;
23142;SDS011;11740;51.168;4.112;2022-07-31T08:51:22;5.50;;;3.65;;
23142;SDS011;11740;51.168;4.112;2022-07-31T08:53:50;5.22;;;3.47;;
23142;SDS011;11740;51.168;4.112;2022-07-31T08:56:18;5.82;;;3.70;;
23142;SDS011;11740;51.168;4.112;2022-07-31T08:58:46;5.63;;;3.80;;
23142;SDS011;11740;51.168;4.112;2022-07-31T09:01:13;5.03;;;3.65;;
23142;SDS011;11740;51.168;4.112;2022-07-31T09:03:41;7.32;;;3.85;;
23142;SDS011;11740;51.168;4.112;2022-07-31T09:06:08;10.80;;;4.03;;
23142;SDS011;11740;51.168;4.112;2022-07-31T09:08:36;5.38;;;3.70;;
23142;SDS011;11740;51.168;4.112;2022-07-31T09:11:05;6.53;;;4.18;;
23142;SDS011;11740;51.168;4.112;2022-07-31T09:13:34;8.23;;;4.10;;
23142;SDS011;11740;51.168;4.112;2022-07-31T09:16:02;7.05;;;4.20;;
23142;SDS011;11740;51.168;4.112;2022-07-31T09:18:31;9.50;;;4.13;;
23142;SDS011;11740;51.168;4.112;2022-07-31T09:21:00;6.97;;;3.80;;
23142;SDS011;11740;51.168;4.112;2022-07-31T09:23:30;7.40;;;3.75;;
23142;SDS011;11740;51.168;4.112;2022-07-31T09:25:58;5.68;;;3.95;;
23142;SDS011;11740;51.168;4.112;2022-07-31T09:28:35;8.43;;;4.45;;
23142;SDS011;11740;51.168;4.112;2022-07-31T09:31:05;6.22;;;4.45;;
23142;SDS011;11740;51.168;4.112;2022-07-31T09:33:34;6.35;;;4.28;;
23142;SDS011;11740;51.168;4.112;2022-07-31T09:36:10;5.50;;;4.38;;
23142;SDS011;11740;51.168;4.112;2022-07-31T09:38:40;6.68;;;4.60;;
23142;SDS011;11740;51.168;4.112;2022-07-31T09:41:12;5.55;;;4.00;;
23142;SDS011;11740;51.168;4.112;2022-07-31T09:44:03;6.72;;;4.25;;
23142;SDS011;11740;51.168;4.112;2022-07-31T09:49:11;6.63;;;4.07;;
23142;SDS011;11740;51.168;4.112;2022-07-31T09:54:06;5.38;;;3.85;;
23142;SDS011;11740;51.168;4.112;2022-07-31T09:56:45;6.78;;;3.85;;
23142;SDS011;11740;51.168;4.112;2022-07-31T09:59:15;6.22;;;3.97;;
23142;SDS011;11740;51.168;4.112;2022-07-31T10:01:43;8.38;;;4.15;;
23142;SDS011;11740;51.168;4.112;2022-07-31T10:04:18;5.55;;;3.60;;
23142;SDS011;11740;51.168;4.112;2022-07-31T10:06:48;8.18;;;4.28;;
23142;SDS011;11740;51.168;4.112;2022-07-31T10:09:17;7.13;;;4.05;;
23142;SDS011;11740;51.168;4.112;2022-07-31T10:11:47;7.45;;;3.97;;
23142;SDS011;11740;51.168;4.112;2022-07-31T10:14:17;6.18;;;3.80;;
23142;SDS011;11740;51.168;4.112;2022-07-31T10:16:51;7.45;;;3.80;;
23142;SDS011;11740;51.168;4.112;2022-07-31T10:19:22;7.65;;;3.53;;
23142;SDS011;11740;51.168;4.112;2022-07-31T10:21:55;7.10;;;3.58;;
23142;SDS011;11740;51.168;4.112;2022-07-31T10:24:27;5.95;;;3.63;;
23142;SDS011;11740;51.168;4.112;2022-07-31T10:26:58;5.53;;;3.53;;
23142;SDS011;11740;51.168;4.112;2022-07-31T10:29:34;4.80;;;3.65;;
23142;SDS011;11740;51.168;4.112;2022-07-31T10:32:05;6.53;;;3.60;;
23142;SDS011;11740;51.168;4.112;2022-07-31T10:34:33;7.30;;;3.47;;
23142;SDS011;11740;51.168;4.112;2022-07-31T10:37:02;7.20;;;3.15;;
23142;SDS011;11740;51.168;4.112;2022-07-31T10:40:03;4.28;;;3.00;;
23142;SDS011;11740;51.168;4.112;2022-07-31T10:45:48;9.13;;;3.17;;
23142;SDS011;11740;51.168;4.112;2022-07-31T10:48:18;6.30;;;3.00;;
23142;SDS011;11740;51.168;4.112;2022-07-31T10:50:46;5.85;;;2.95;;
23142;SDS011;11740;51.168;4.112;2022-07-31T10:53:16;5.00;;;2.80;;
23142;SDS011;11740;51.168;4.112;2022-07-31T10:55:45;3.67;;;2.50;;
23142;SDS011;11740;51.168;4.112;2022-07-31T10:58:13;3.67;;;2.60;;
23142;SDS011;11740;51.168;4.112;2022-07-31T11:00:44;7.40;;;2.83;;
23142;SDS011;11740;51.168;4.112;2022-07-31T11:03:20;4.38;;;2.50;;
23142;SDS011;11740;51.168;4.112;2022-07-31T11:05:53;8.25;;;2.33;;
23142;SDS011;11740;51.168;4.112;2022-07-31T11:08:38;5.18;;;1.98;;
23142;SDS011;11740;51.168;4.112;2022-07-31T11:11:14;3.17;;;1.83;;
23142;SDS011;11740;51.168;4.112;2022-07-31T11:13:48;6.00;;;1.90;;
23142;SDS011;11740;51.168;4.112;2022-07-31T11:16:18;2.08;;;1.73;;
23142;SDS011;11740;51.168;4.112;2022-07-31T11:18:58;3.67;;;2.22;;
23142;SDS011;11740;51.168;4.112;2022-07-31T11:21:32;3.53;;;2.20;;
23142;SDS011;11740;51.168;4.112;2022-07-31T11:24:12;3.47;;;2.05;;
23142;SDS011;11740;51.168;4.112;2022-07-31T11:26:52;4.18;;;1.90;;
23142;SDS011;11740;51.168;4.112;2022-07-31T11:29:24;2.55;;;1.50;;
23142;SDS011;11740;51.168;4.112;2022-07-31T11:32:15;6.00;;;2.05;;
23142;SDS011;11740;51.168;4.112;2022-07-31T11:34:52;2.30;;;1.50;;
23142;SDS011;11740;51.168;4.112;2022-07-31T11:37:30;2.95;;;1.75;;
23142;SDS011;11740;51.168;4.112;2022-07-31T11:40:18;1.60;;;1.40;;
23142;SDS011;11740;51.168;4.112;2022-07-31T11:42:51;5.53;;;1.67;;
23142;SDS011;11740;51.168;4.112;2022-07-31T11:45:46;4.18;;;1.60;;
23142;SDS011;11740;51.168;4.112;2022-07-31T11:48:18;1.42;;;1.30;;
23142;SDS011;11740;51.168;4.112;2022-07-31T11:50:49;2.40;;;1.30;;
23142;SDS011;11740;51.168;4.112;2022-07-31T11:53:16;4.43;;;1.73;;
23142;SDS011;11740;51.168;4.112;2022-07-31T11:55:52;3.70;;;1.60;;
23142;SDS011;11740;51.168;4.112;2022-07-31T11:58:26;3.97;;;1.55;;
23142;SDS011;11740;51.168;4.112;2022-07-31T12:00:57;1.50;;;1.20;;
23142;SDS011;11740;51.168;4.112;2022-07-31T12:03:31;3.30;;;1.52;;
23142;SDS011;11740;51.168;4.112;2022-07-31T12:06:04;5.18;;;1.48;;
23142;SDS011;11740;51.168;4.112;2022-07-31T12:08:35;4.10;;;1.42;;
23142;SDS011;11740;51.168;4.112;2022-07-31T12:11:03;5.57;;;1.63;;
23142;SDS011;11740;51.168;4.112;2022-07-31T12:13:33;1.73;;;1.30;;
23142;SDS011;11740;51.168;4.112;2022-07-31T12:16:05;3.30;;;1.77;;
23142;SDS011;11740;51.168;4.112;2022-07-31T12:21:12;2.55;;;1.20;;
23142;SDS011;11740;51.168;4.112;2022-07-31T12:23:44;2.88;;;1.40;;
23142;SDS011;11740;51.168;4.112;2022-07-31T12:26:35;4.30;;;1.25;;
23142;SDS011;11740;51.168;4.112;2022-07-31T12:29:09;1.83;;;1.30;;
23142;SDS011;11740;51.168;4.112;2022-07-31T12:34:25;4.18;;;1.30;;
23142;SDS011;11740;51.168;4.112;2022-07-31T12:37:14;2.25;;;1.23;;
23142;SDS011;11740;51.168;4.112;2022-07-31T12:45:01;1.20;;;0.95;;
23142;SDS011;11740;51.168;4.112;2022-07-31T12:47:45;1.90;;;1.05;;
23142;SDS011;11740;51.168;4.112;2022-07-31T12:50:27;4.60;;;1.30;;
23142;SDS011;11740;51.168;4.112;2022-07-31T12:52:58;3.42;;;1.13;;
23142;SDS011;11740;51.168;4.112;2022-07-31T12:55:28;1.88;;;1.35;;
23142;SDS011;11740;51.168;4.112;2022-07-31T12:57:58;2.75;;;1.10;;
23142;SDS011;11740;51.168;4.112;2022-07-31T13:00:26;3.30;;;1.10;;
23142;SDS011;11740;51.168;4.112;2022-07-31T13:02:55;3.60;;;1.17;;
23142;SDS011;11740;51.168;4.112;2022-07-31T13:05:23;2.08;;;1.17;;
23142;SDS011;11740;51.168;4.112;2022-07-31T13:07:52;5.30;;;1.25;;
23142;SDS011;11740;51.168;4.112;2022-07-31T13:10:19;2.05;;;1.20;;
23142;SDS011;11740;51.168;4.112;2022-07-31T13:12:50;2.35;;;1.38;;
23142;SDS011;11740;51.168;4.112;2022-07-31T13:15:20;2.03;;;1.15;;
23142;SDS011;11740;51.168;4.112;2022-07-31T13:17:59;2.20;;;1.10;;
23142;SDS011;11740;51.168;4.112;2022-07-31T13:20:30;3.45;;;1.30;;
23142;SDS011;11740;51.168;4.112;2022-07-31T13:22:58;4.88;;;1.20;;
23142;SDS011;11740;51.168;4.112;2022-07-31T13:25:26;2.65;;;1.27;;
23142;SDS011;11740;51.168;4.112;2022-07-31T13:27:56;3.22;;;1.10;;
23142;SDS011;11740;51.168;4.112;2022-07-31T13:30:23;3.25;;;1.20;;
23142;SDS011;11740;51.168;4.112;2022-07-31T13:32:52;2.95;;;1.27;;
23142;SDS011;11740;51.168;4.112;2022-07-31T13:35:19;2.33;;;1.20;;
23142;SDS011;11740;51.168;4.112;2022-07-31T13:37:53;4.35;;;1.30;;
23142;SDS011;11740;51.168;4.112;2022-07-31T13:40:21;2.97;;;1.10;;
23142;SDS011;11740;51.168;4.112;2022-07-31T13:43:09;3.03;;;1.40;;
23142;SDS011;11740;51.168;4.112;2022-07-31T13:45:36;3.50;;;1.60;;
23142;SDS011;11740;51.168;4.112;2022-07-31T13:48:04;2.47;;;1.15;;
23142;SDS011;11740;51.168;4.112;2022-07-31T13:50:35;3.00;;;1.30;;
23142;SDS011;11740;51.168;4.112;2022-07-31T13:53:05;1.08;;;1.00;;
23142;SDS011;11740;51.168;4.112;2022-07-31T13:55:32;4.53;;;1.40;;
23142;SDS011;11740;51.168;4.112;2022-07-31T13:57:59;3.17;;;1.38;;
23142;SDS011;11740;51.168;4.112;2022-07-31T14:00:27;3.25;;;1.10;;
23142;SDS011;11740;51.168;4.112;2022-07-31T14:02:55;5.40;;;1.67;;
23142;SDS011;11740;51.168;4.112;2022-07-31T14:05:23;4.18;;;1.27;;
23142;SDS011;11740;51.168;4.112;2022-07-31T14:07:53;3.47;;;1.38;;
23142;SDS011;11740;51.168;4.112;2022-07-31T14:10:41;3.30;;;1.27;;
23142;SDS011;11740;51.168;4.112;2022-07-31T14:13:13;3.92;;;1.30;;
23142;SDS011;11740;51.168;4.112;2022-07-31T14:15:41;1.50;;;1.10;;
23142;SDS011;11740;51.168;4.112;2022-07-31T14:18:08;2.58;;;1.40;;
23142;SDS011;11740;51.168;4.112;2022-07-31T14:20:35;3.55;;;1.40;;
23142;SDS011;11740;51.168;4.112;2022-07-31T14:23:03;2.33;;;1.23;;
23142;SDS011;11740;51.168;4.112;2022-07-31T14:25:36;4.43;;;1.23;;
23142;SDS011;11740;51.168;4.112;2022-07-31T14:28:04;1.95;;;1.17;;
23142;SDS011;11740;51.168;4.112;2022-07-31T14:30:34;2.38;;;0.95;;
23142;SDS011;11740;51.168;4.112;2022-07-31T14:33:03;3.50;;;1.02;;
23142;SDS011;11740;51.168;4.112;2022-07-31T14:35:30;2.15;;;0.90;;
23142;SDS011;11740;51.168;4.112;2022-07-31T14:37:59;3.53;;;1.10;;
23142;SDS011;11740;51.168;4.112;2022-07-31T14:40:29;2.10;;;1.00;;
23142;SDS011;11740;51.168;4.112;2022-07-31T14:42:56;5.22;;;1.10;;
23142;SDS011;11740;51.168;4.112;2022-07-31T14:45:25;4.53;;;1.20;;
23142;SDS011;11740;51.168;4.112;2022-07-31T14:47:53;3.80;;;1.20;;
23142;SDS011;11740;51.168;4.112;2022-07-31T14:50:20;2.72;;;1.40;;
23142;SDS011;11740;51.168;4.112;2022-07-31T14:52:51;3.30;;;1.20;;
23142;SDS011;11740;51.168;4.112;2022-07-31T14:55:18;2.33;;;1.10;;
23142;SDS011;11740;51.168;4.112;2022-07-31T14:57:46;2.40;;;1.20;;
23142;SDS011;11740;51.168;4.112;2022-07-31T15:00:13;4.03;;;1.17;;
23142;SDS011;11740;51.168;4.112;2022-07-31T15:02:43;1.30;;;1.00;;
23142;SDS011;11740;51.168;4.112;2022-07-31T15:05:11;4.53;;;1.30;;
23142;SDS011;11740;51.168;4.112;2022-07-31T15:07:58;6.10;;;1.13;;
23142;SDS011;11740;51.168;4.112;2022-07-31T15:10:29;2.17;;;0.90;;
23142;SDS011;11740;51.168;4.112;2022-07-31T15:12:56;4.38;;;1.15;;
23142;SDS011;11740;51.168;4.112;2022-07-31T15:15:23;1.65;;;1.20;;
23142;SDS011;11740;51.168;4.112;2022-07-31T15:17:53;5.78;;;1.23;;
23142;SDS011;11740;51.168;4.112;2022-07-31T15:20:20;3.15;;;0.98;;
23142;SDS011;11740;51.168;4.112;2022-07-31T15:22:58;2.75;;;1.02;;
23142;SDS011;11740;51.168;4.112;2022-07-31T15:25:25;2.53;;;1.00;;
23142;SDS011;11740;51.168;4.112;2022-07-31T15:27:52;5.32;;;1.30;;
23142;SDS011;11740;51.168;4.112;2022-07-31T15:30:19;2.70;;;1.30;;
23142;SDS011;11740;51.168;4.112;2022-07-31T15:32:46;4.03;;;1.58;;
23142;SDS011;11740;51.168;4.112;2022-07-31T15:35:14;4.35;;;0.98;;
23142;SDS011;11740;51.168;4.112;2022-07-31T15:37:43;3.53;;;1.10;;